sensor_id;sensor_type;location;lat;lon;timestamp;P1;durP1;ratioP1;P2;durP2;ratioP2
20531;SDS011;10424;52.102;8.084;2023-05-07T00:01:51;27.63;;;16.27;;
20531;SDS011;10424;52.102;8.084;2023-05-07T00:04:18;24.40;;;16.55;;
20531;SDS011;10424;52.102;8.084;2023-05-07T00:06:46;23.70;;;16.17;;
20531;SDS011;10424;52.102;8.084;2023-05-07T00:09:13;24.13;;;15.98;;
20531;SDS011;10424;52.102;8.084;2023-05-07T00:11:41;24.65;;;16.10;;
20531;SDS011;10424;52.102;8.084;2023-05-07T00:14:10;26.67;;;15.90;;
20531;SDS011;10424;52.102;8.084;2023-05-07T00:16:37;25.50;;;16.55;;
20531;SDS011;10424;52.102;8.084;2023-05-07T00:19:04;23.98;;;15.93;;
20531;SDS011;10424;52.102;8.084;2023-05-07T00:21:31;23.90;;;16.40;;
20531;SDS011;10424;52.102;8.084;2023-05-07T00:23:59;25.00;;;16.48;;
20531;SDS011;10424;52.102;8.084;2023-05-07T00:26:26;26.35;;;16.60;;
20531;SDS011;10424;52.102;8.084;2023-05-07T00:28:53;25.02;;;16.42;;
20531;SDS011;10424;52.102;8.084;2023-05-07T00:31:22;24.95;;;17.05;;
20531;SDS011;10424;52.102;8.084;2023-05-07T00:33:49;23.42;;;16.17;;
20531;SDS011;10424;52.102;8.084;2023-05-07T00:36:16;24.50;;;16.55;;
20531;SDS011;10424;52.102;8.084;2023-05-07T00:38:43;24.85;;;16.05;;
20531;SDS011;10424;52.102;8.084;2023-05-07T00:41:11;24.48;;;16.08;;
20531;SDS011;10424;52.102;8.084;2023-05-07T00:43:38;23.80;;;16.15;;
20531;SDS011;10424;52.102;8.084;2023-05-07T00:46:05;26.45;;;16.52;;
20531;SDS011;10424;52.102;8.084;2023-05-07T00:48:34;24.35;;;16.15;;
20531;SDS011;10424;52.102;8.084;2023-05-07T00:51:01;24.10;;;16.35;;
20531;SDS011;10424;52.102;8.084;2023-05-07T00:53:28;24.55;;;16.27;;
20531;SDS011;10424;52.102;8.084;2023-05-07T00:55:56;24.15;;;16.27;;
20531;SDS011;10424;52.102;8.084;2023-05-07T00:58:25;23.40;;;16.00;;
20531;SDS011;10424;52.102;8.084;2023-05-07T01:00:53;26.80;;;16.10;;
20531;SDS011;10424;52.102;8.084;2023-05-07T01:03:20;23.42;;;15.90;;
20531;SDS011;10424;52.102;8.084;2023-05-07T01:05:49;25.02;;;16.08;;
20531;SDS011;10424;52.102;8.084;2023-05-07T01:08:16;24.58;;;16.02;;
20531;SDS011;10424;52.102;8.084;2023-05-07T01:10:44;25.35;;;15.98;;
20531;SDS011;10424;52.102;8.084;2023-05-07T01:13:12;27.38;;;16.52;;
20531;SDS011;10424;52.102;8.084;2023-05-07T01:15:40;24.90;;;16.17;;
20531;SDS011;10424;52.102;8.084;2023-05-07T01:18:07;27.63;;;16.23;;
20531;SDS011;10424;52.102;8.084;2023-05-07T01:20:35;25.75;;;16.50;;
20531;SDS011;10424;52.102;8.084;2023-05-07T01:23:03;25.85;;;16.70;;
20531;SDS011;10424;52.102;8.084;2023-05-07T01:25:31;25.50;;;16.70;;
20531;SDS011;10424;52.102;8.084;2023-05-07T01:27:59;25.30;;;16.42;;
20531;SDS011;10424;52.102;8.084;2023-05-07T01:30:26;23.90;;;15.95;;
20531;SDS011;10424;52.102;8.084;2023-05-07T01:32:56;23.80;;;16.50;;
20531;SDS011;10424;52.102;8.084;2023-05-07T01:35:26;26.95;;;17.00;;
20531;SDS011;10424;52.102;8.084;2023-05-07T01:37:54;27.08;;;16.67;;
20531;SDS011;10424;52.102;8.084;2023-05-07T01:40:23;26.38;;;16.70;;
20531;SDS011;10424;52.102;8.084;2023-05-07T01:42:51;25.73;;;16.92;;
20531;SDS011;10424;52.102;8.084;2023-05-07T01:45:19;25.23;;;16.63;;
20531;SDS011;10424;52.102;8.084;2023-05-07T01:47:46;26.95;;;17.05;;
20531;SDS011;10424;52.102;8.084;2023-05-07T01:50:13;27.55;;;17.33;;
20531;SDS011;10424;52.102;8.084;2023-05-07T01:52:42;25.98;;;16.73;;
20531;SDS011;10424;52.102;8.084;2023-05-07T01:55:10;27.15;;;17.52;;
20531;SDS011;10424;52.102;8.084;2023-05-07T01:57:39;26.48;;;16.15;;
20531;SDS011;10424;52.102;8.084;2023-05-07T02:00:06;26.38;;;17.25;;
20531;SDS011;10424;52.102;8.084;2023-05-07T02:02:34;26.75;;;16.75;;
20531;SDS011;10424;52.102;8.084;2023-05-07T02:05:03;30.52;;;17.25;;
20531;SDS011;10424;52.102;8.084;2023-05-07T02:07:30;27.25;;;17.35;;
20531;SDS011;10424;52.102;8.084;2023-05-07T02:09:57;29.20;;;17.10;;
20531;SDS011;10424;52.102;8.084;2023-05-07T02:12:25;26.83;;;16.70;;
20531;SDS011;10424;52.102;8.084;2023-05-07T02:14:53;30.20;;;17.48;;
20531;SDS011;10424;52.102;8.084;2023-05-07T02:17:21;29.70;;;17.42;;
20531;SDS011;10424;52.102;8.084;2023-05-07T02:19:48;27.80;;;17.60;;
20531;SDS011;10424;52.102;8.084;2023-05-07T02:22:15;26.45;;;17.88;;
20531;SDS011;10424;52.102;8.084;2023-05-07T02:24:42;26.70;;;17.42;;
20531;SDS011;10424;52.102;8.084;2023-05-07T02:27:10;28.75;;;17.67;;
20531;SDS011;10424;52.102;8.084;2023-05-07T02:29:37;26.83;;;16.67;;
20531;SDS011;10424;52.102;8.084;2023-05-07T02:32:06;29.17;;;17.85;;
20531;SDS011;10424;52.102;8.084;2023-05-07T02:34:33;28.40;;;17.95;;
20531;SDS011;10424;52.102;8.084;2023-05-07T02:37:00;26.65;;;16.98;;
20531;SDS011;10424;52.102;8.084;2023-05-07T02:39:28;27.98;;;17.83;;
20531;SDS011;10424;52.102;8.084;2023-05-07T02:41:55;28.58;;;18.17;;
20531;SDS011;10424;52.102;8.084;2023-05-07T02:44:22;28.60;;;17.52;;
20531;SDS011;10424;52.102;8.084;2023-05-07T02:46:49;29.15;;;19.17;;
20531;SDS011;10424;52.102;8.084;2023-05-07T02:49:18;29.25;;;18.33;;
20531;SDS011;10424;52.102;8.084;2023-05-07T02:51:45;31.05;;;18.50;;
20531;SDS011;10424;52.102;8.084;2023-05-07T02:54:13;29.35;;;18.35;;
20531;SDS011;10424;52.102;8.084;2023-05-07T02:56:40;28.88;;;18.27;;
20531;SDS011;10424;52.102;8.084;2023-05-07T02:59:07;28.10;;;18.63;;
20531;SDS011;10424;52.102;8.084;2023-05-07T03:01:35;30.40;;;18.60;;
20531;SDS011;10424;52.102;8.084;2023-05-07T03:04:02;26.75;;;17.63;;
20531;SDS011;10424;52.102;8.084;2023-05-07T03:06:31;29.88;;;18.52;;
20531;SDS011;10424;52.102;8.084;2023-05-07T03:08:58;30.00;;;18.90;;
20531;SDS011;10424;52.102;8.084;2023-05-07T03:11:25;29.08;;;18.05;;
20531;SDS011;10424;52.102;8.084;2023-05-07T03:13:53;28.23;;;17.88;;
20531;SDS011;10424;52.102;8.084;2023-05-07T03:16:20;31.30;;;18.98;;
20531;SDS011;10424;52.102;8.084;2023-05-07T03:18:47;28.55;;;18.15;;
20531;SDS011;10424;52.102;8.084;2023-05-07T03:21:14;29.58;;;18.58;;
20531;SDS011;10424;52.102;8.084;2023-05-07T03:23:43;28.95;;;18.20;;
20531;SDS011;10424;52.102;8.084;2023-05-07T03:26:10;27.08;;;18.10;;
20531;SDS011;10424;52.102;8.084;2023-05-07T03:28:37;27.25;;;17.60;;
20531;SDS011;10424;52.102;8.084;2023-05-07T03:31:05;28.30;;;17.80;;
20531;SDS011;10424;52.102;8.084;2023-05-07T03:33:32;30.45;;;18.67;;
20531;SDS011;10424;52.102;8.084;2023-05-07T03:36:00;29.48;;;18.48;;
20531;SDS011;10424;52.102;8.084;2023-05-07T03:38:27;28.10;;;18.38;;
20531;SDS011;10424;52.102;8.084;2023-05-07T03:40:56;30.73;;;19.23;;
20531;SDS011;10424;52.102;8.084;2023-05-07T03:43:23;30.83;;;17.85;;
20531;SDS011;10424;52.102;8.084;2023-05-07T03:45:50;27.98;;;17.65;;
20531;SDS011;10424;52.102;8.084;2023-05-07T03:48:17;30.77;;;17.98;;
20531;SDS011;10424;52.102;8.084;2023-05-07T03:50:44;33.00;;;18.92;;
20531;SDS011;10424;52.102;8.084;2023-05-07T03:53:12;29.33;;;18.30;;
20531;SDS011;10424;52.102;8.084;2023-05-07T03:55:40;28.55;;;17.45;;
20531;SDS011;10424;52.102;8.084;2023-05-07T03:58:08;30.55;;;17.92;;
20531;SDS011;10424;52.102;8.084;2023-05-07T04:00:36;28.70;;;18.40;;
20531;SDS011;10424;52.102;8.084;2023-05-07T04:03:05;31.13;;;19.25;;
20531;SDS011;10424;52.102;8.084;2023-05-07T04:05:33;29.67;;;18.70;;
20531;SDS011;10424;52.102;8.084;2023-05-07T04:08:00;31.85;;;18.90;;
20531;SDS011;10424;52.102;8.084;2023-05-07T04:10:28;30.98;;;19.42;;
20531;SDS011;10424;52.102;8.084;2023-05-07T04:12:56;31.52;;;18.25;;
20531;SDS011;10424;52.102;8.084;2023-05-07T04:15:24;29.65;;;18.48;;
20531;SDS011;10424;52.102;8.084;2023-05-07T04:17:52;31.48;;;18.60;;
20531;SDS011;10424;52.102;8.084;2023-05-07T04:20:19;33.03;;;18.27;;
20531;SDS011;10424;52.102;8.084;2023-05-07T04:22:46;32.38;;;18.70;;
20531;SDS011;10424;52.102;8.084;2023-05-07T04:25:13;31.35;;;18.38;;
20531;SDS011;10424;52.102;8.084;2023-05-07T04:27:42;30.17;;;19.63;;
20531;SDS011;10424;52.102;8.084;2023-05-07T04:30:10;30.52;;;19.60;;
20531;SDS011;10424;52.102;8.084;2023-05-07T04:32:39;30.33;;;17.98;;
20531;SDS011;10424;52.102;8.084;2023-05-07T04:35:06;32.17;;;19.20;;
20531;SDS011;10424;52.102;8.084;2023-05-07T04:37:34;30.45;;;18.58;;
20531;SDS011;10424;52.102;8.084;2023-05-07T04:40:01;31.08;;;18.58;;
20531;SDS011;10424;52.102;8.084;2023-05-07T04:42:29;31.40;;;19.33;;
20531;SDS011;10424;52.102;8.084;2023-05-07T04:44:56;32.03;;;18.88;;
20531;SDS011;10424;52.102;8.084;2023-05-07T04:47:23;30.92;;;18.98;;
20531;SDS011;10424;52.102;8.084;2023-05-07T04:49:52;29.98;;;18.83;;
20531;SDS011;10424;52.102;8.084;2023-05-07T04:52:19;33.67;;;18.92;;
20531;SDS011;10424;52.102;8.084;2023-05-07T04:54:46;30.25;;;17.90;;
20531;SDS011;10424;52.102;8.084;2023-05-07T04:57:14;31.65;;;18.48;;
20531;SDS011;10424;52.102;8.084;2023-05-07T04:59:42;32.08;;;18.95;;
20531;SDS011;10424;52.102;8.084;2023-05-07T05:02:09;30.85;;;18.17;;
20531;SDS011;10424;52.102;8.084;2023-05-07T05:04:37;31.05;;;19.10;;
20531;SDS011;10424;52.102;8.084;2023-05-07T05:07:05;30.48;;;19.08;;
20531;SDS011;10424;52.102;8.084;2023-05-07T05:09:32;30.83;;;18.17;;
20531;SDS011;10424;52.102;8.084;2023-05-07T05:12:00;32.55;;;18.33;;
20531;SDS011;10424;52.102;8.084;2023-05-07T05:14:27;30.17;;;18.30;;
20531;SDS011;10424;52.102;8.084;2023-05-07T05:16:54;29.95;;;18.17;;
20531;SDS011;10424;52.102;8.084;2023-05-07T05:19:21;29.25;;;18.15;;
20531;SDS011;10424;52.102;8.084;2023-05-07T05:21:49;29.42;;;18.98;;
20531;SDS011;10424;52.102;8.084;2023-05-07T05:24:17;31.50;;;19.13;;
20531;SDS011;10424;52.102;8.084;2023-05-07T05:26:45;26.77;;;17.85;;
20531;SDS011;10424;52.102;8.084;2023-05-07T05:29:12;28.25;;;17.63;;
20531;SDS011;10424;52.102;8.084;2023-05-07T05:31:40;29.38;;;18.42;;
20531;SDS011;10424;52.102;8.084;2023-05-07T05:34:07;29.55;;;18.75;;
20531;SDS011;10424;52.102;8.084;2023-05-07T05:36:34;29.52;;;18.48;;
20531;SDS011;10424;52.102;8.084;2023-05-07T05:39:01;30.17;;;19.08;;
20531;SDS011;10424;52.102;8.084;2023-05-07T05:41:30;33.10;;;19.33;;
20531;SDS011;10424;52.102;8.084;2023-05-07T05:43:57;31.98;;;19.38;;
20531;SDS011;10424;52.102;8.084;2023-05-07T05:46:24;34.13;;;18.60;;
20531;SDS011;10424;52.102;8.084;2023-05-07T05:48:52;34.47;;;18.27;;
20531;SDS011;10424;52.102;8.084;2023-05-07T05:51:20;30.00;;;18.75;;
20531;SDS011;10424;52.102;8.084;2023-05-07T05:53:47;29.17;;;18.00;;
20531;SDS011;10424;52.102;8.084;2023-05-07T05:56:15;30.02;;;18.30;;
20531;SDS011;10424;52.102;8.084;2023-05-07T05:58:43;30.63;;;18.75;;
20531;SDS011;10424;52.102;8.084;2023-05-07T06:01:11;31.50;;;19.13;;
20531;SDS011;10424;52.102;8.084;2023-05-07T06:03:38;28.95;;;18.13;;
20531;SDS011;10424;52.102;8.084;2023-05-07T06:06:05;29.50;;;18.40;;
20531;SDS011;10424;52.102;8.084;2023-05-07T06:08:32;33.15;;;19.02;;
20531;SDS011;10424;52.102;8.084;2023-05-07T06:11:00;38.72;;;18.48;;
20531;SDS011;10424;52.102;8.084;2023-05-07T06:13:28;28.33;;;17.77;;
20531;SDS011;10424;52.102;8.084;2023-05-07T06:15:56;31.90;;;17.60;;
20531;SDS011;10424;52.102;8.084;2023-05-07T06:18:24;30.67;;;18.63;;
20531;SDS011;10424;52.102;8.084;2023-05-07T06:20:51;31.38;;;18.65;;
20531;SDS011;10424;52.102;8.084;2023-05-07T06:23:18;28.60;;;18.52;;
20531;SDS011;10424;52.102;8.084;2023-05-07T06:25:47;28.45;;;18.65;;
20531;SDS011;10424;52.102;8.084;2023-05-07T06:28:15;28.98;;;17.85;;
20531;SDS011;10424;52.102;8.084;2023-05-07T06:30:45;32.97;;;19.15;;
20531;SDS011;10424;52.102;8.084;2023-05-07T06:33:16;28.75;;;18.63;;
20531;SDS011;10424;52.102;8.084;2023-05-07T06:35:44;27.65;;;18.40;;
20531;SDS011;10424;52.102;8.084;2023-05-07T06:38:11;29.30;;;18.52;;
20531;SDS011;10424;52.102;8.084;2023-05-07T06:40:39;31.30;;;18.65;;
20531;SDS011;10424;52.102;8.084;2023-05-07T06:43:07;32.13;;;18.65;;
20531;SDS011;10424;52.102;8.084;2023-05-07T06:45:34;30.10;;;18.25;;
20531;SDS011;10424;52.102;8.084;2023-05-07T06:48:02;31.05;;;19.75;;
20531;SDS011;10424;52.102;8.084;2023-05-07T06:50:30;31.50;;;18.02;;
20531;SDS011;10424;52.102;8.084;2023-05-07T06:52:57;28.17;;;18.15;;
20531;SDS011;10424;52.102;8.084;2023-05-07T06:55:25;33.15;;;18.42;;
20531;SDS011;10424;52.102;8.084;2023-05-07T06:57:52;31.15;;;20.30;;
20531;SDS011;10424;52.102;8.084;2023-05-07T07:00:19;30.95;;;17.75;;
20531;SDS011;10424;52.102;8.084;2023-05-07T07:02:47;26.40;;;17.33;;
20531;SDS011;10424;52.102;8.084;2023-05-07T07:05:14;27.58;;;17.42;;
20531;SDS011;10424;52.102;8.084;2023-05-07T07:07:42;27.35;;;16.38;;
20531;SDS011;10424;52.102;8.084;2023-05-07T07:10:10;26.33;;;17.10;;
20531;SDS011;10424;52.102;8.084;2023-05-07T07:12:40;27.85;;;16.85;;
20531;SDS011;10424;52.102;8.084;2023-05-07T07:15:09;26.88;;;17.25;;
20531;SDS011;10424;52.102;8.084;2023-05-07T07:17:36;28.13;;;17.05;;
20531;SDS011;10424;52.102;8.084;2023-05-07T07:20:04;27.48;;;17.63;;
20531;SDS011;10424;52.102;8.084;2023-05-07T07:22:31;28.00;;;17.15;;
20531;SDS011;10424;52.102;8.084;2023-05-07T07:25:00;27.63;;;17.25;;
20531;SDS011;10424;52.102;8.084;2023-05-07T07:27:27;27.02;;;17.48;;
20531;SDS011;10424;52.102;8.084;2023-05-07T07:29:55;27.17;;;16.90;;
20531;SDS011;10424;52.102;8.084;2023-05-07T07:32:22;31.42;;;17.48;;
20531;SDS011;10424;52.102;8.084;2023-05-07T07:34:49;26.70;;;16.80;;
20531;SDS011;10424;52.102;8.084;2023-05-07T07:37:17;27.80;;;17.02;;
20531;SDS011;10424;52.102;8.084;2023-05-07T07:39:44;26.65;;;16.25;;
20531;SDS011;10424;52.102;8.084;2023-05-07T07:42:13;27.40;;;16.58;;
20531;SDS011;10424;52.102;8.084;2023-05-07T07:44:40;26.48;;;16.02;;
20531;SDS011;10424;52.102;8.084;2023-05-07T07:47:07;24.77;;;16.10;;
20531;SDS011;10424;52.102;8.084;2023-05-07T07:49:34;24.63;;;16.00;;
20531;SDS011;10424;52.102;8.084;2023-05-07T07:52:01;24.73;;;16.10;;
20531;SDS011;10424;52.102;8.084;2023-05-07T07:54:29;26.42;;;14.95;;
20531;SDS011;10424;52.102;8.084;2023-05-07T07:56:56;24.85;;;16.50;;
20531;SDS011;10424;52.102;8.084;2023-05-07T07:59:25;25.10;;;15.68;;
20531;SDS011;10424;52.102;8.084;2023-05-07T08:01:52;27.08;;;16.40;;
20531;SDS011;10424;52.102;8.084;2023-05-07T08:04:21;23.85;;;15.77;;
20531;SDS011;10424;52.102;8.084;2023-05-07T08:06:49;25.20;;;16.55;;
20531;SDS011;10424;52.102;8.084;2023-05-07T08:09:16;25.02;;;15.63;;
20531;SDS011;10424;52.102;8.084;2023-05-07T08:11:43;26.33;;;15.50;;
20531;SDS011;10424;52.102;8.084;2023-05-07T08:14:11;25.63;;;16.20;;
20531;SDS011;10424;52.102;8.084;2023-05-07T08:16:40;24.70;;;15.30;;
20531;SDS011;10424;52.102;8.084;2023-05-07T08:19:07;26.15;;;15.75;;
20531;SDS011;10424;52.102;8.084;2023-05-07T08:21:38;24.67;;;15.32;;
20531;SDS011;10424;52.102;8.084;2023-05-07T08:24:05;24.70;;;14.98;;
20531;SDS011;10424;52.102;8.084;2023-05-07T08:26:33;26.40;;;15.45;;
20531;SDS011;10424;52.102;8.084;2023-05-07T08:29:01;22.42;;;14.80;;
20531;SDS011;10424;52.102;8.084;2023-05-07T08:31:28;22.70;;;14.20;;
20531;SDS011;10424;52.102;8.084;2023-05-07T08:33:57;21.20;;;14.05;;
20531;SDS011;10424;52.102;8.084;2023-05-07T08:36:24;23.35;;;14.70;;
20531;SDS011;10424;52.102;8.084;2023-05-07T08:38:51;20.20;;;14.07;;
20531;SDS011;10424;52.102;8.084;2023-05-07T08:41:19;19.75;;;13.27;;
20531;SDS011;10424;52.102;8.084;2023-05-07T08:43:47;22.35;;;13.85;;
20531;SDS011;10424;52.102;8.084;2023-05-07T08:46:17;20.25;;;13.23;;
20531;SDS011;10424;52.102;8.084;2023-05-07T08:48:44;19.05;;;12.68;;
20531;SDS011;10424;52.102;8.084;2023-05-07T08:51:15;22.25;;;13.60;;
20531;SDS011;10424;52.102;8.084;2023-05-07T08:53:42;19.33;;;12.30;;
20531;SDS011;10424;52.102;8.084;2023-05-07T08:56:09;17.80;;;12.15;;
20531;SDS011;10424;52.102;8.084;2023-05-07T08:58:37;17.42;;;12.07;;
20531;SDS011;10424;52.102;8.084;2023-05-07T09:01:07;18.55;;;12.80;;
20531;SDS011;10424;52.102;8.084;2023-05-07T09:03:34;17.50;;;11.88;;
20531;SDS011;10424;52.102;8.084;2023-05-07T09:06:01;19.63;;;12.27;;
20531;SDS011;10424;52.102;8.084;2023-05-07T09:08:33;17.33;;;11.75;;
20531;SDS011;10424;52.102;8.084;2023-05-07T09:11:01;17.17;;;10.88;;
20531;SDS011;10424;52.102;8.084;2023-05-07T09:13:28;16.98;;;11.00;;
20531;SDS011;10424;52.102;8.084;2023-05-07T09:15:56;14.15;;;10.70;;
20531;SDS011;10424;52.102;8.084;2023-05-07T09:18:23;16.85;;;11.35;;
20531;SDS011;10424;52.102;8.084;2023-05-07T09:20:51;15.80;;;11.05;;
20531;SDS011;10424;52.102;8.084;2023-05-07T09:23:18;15.20;;;10.57;;
20531;SDS011;10424;52.102;8.084;2023-05-07T09:25:47;16.17;;;10.50;;
20531;SDS011;10424;52.102;8.084;2023-05-07T09:28:14;16.05;;;10.95;;
20531;SDS011;10424;52.102;8.084;2023-05-07T09:30:41;14.18;;;10.52;;
20531;SDS011;10424;52.102;8.084;2023-05-07T09:33:08;14.25;;;10.38;;
20531;SDS011;10424;52.102;8.084;2023-05-07T09:35:37;14.63;;;9.85;;
20531;SDS011;10424;52.102;8.084;2023-05-07T09:38:04;13.82;;;9.80;;
20531;SDS011;10424;52.102;8.084;2023-05-07T09:40:31;14.32;;;10.27;;
20531;SDS011;10424;52.102;8.084;2023-05-07T09:43:09;12.45;;;10.00;;
20531;SDS011;10424;52.102;8.084;2023-05-07T09:45:37;13.32;;;9.85;;
20531;SDS011;10424;52.102;8.084;2023-05-07T09:48:05;13.85;;;9.35;;
20531;SDS011;10424;52.102;8.084;2023-05-07T09:50:35;13.02;;;9.90;;
20531;SDS011;10424;52.102;8.084;2023-05-07T09:53:03;12.68;;;10.10;;
20531;SDS011;10424;52.102;8.084;2023-05-07T09:55:31;11.60;;;9.45;;
20531;SDS011;10424;52.102;8.084;2023-05-07T09:57:58;10.90;;;8.77;;
20531;SDS011;10424;52.102;8.084;2023-05-07T10:00:29;12.65;;;9.60;;
20531;SDS011;10424;52.102;8.084;2023-05-07T10:02:56;11.77;;;9.10;;
20531;SDS011;10424;52.102;8.084;2023-05-07T10:05:24;14.55;;;9.43;;
20531;SDS011;10424;52.102;8.084;2023-05-07T10:07:52;12.60;;;9.10;;
20531;SDS011;10424;52.102;8.084;2023-05-07T10:10:20;11.20;;;9.25;;
20531;SDS011;10424;52.102;8.084;2023-05-07T10:12:48;12.90;;;8.60;;
20531;SDS011;10424;52.102;8.084;2023-05-07T10:15:15;11.77;;;9.50;;
20531;SDS011;10424;52.102;8.084;2023-05-07T10:17:44;10.75;;;8.82;;
20531;SDS011;10424;52.102;8.084;2023-05-07T10:20:12;10.30;;;8.40;;
20531;SDS011;10424;52.102;8.084;2023-05-07T10:22:40;11.88;;;8.82;;
20531;SDS011;10424;52.102;8.084;2023-05-07T10:25:09;11.70;;;8.55;;
20531;SDS011;10424;52.102;8.084;2023-05-07T10:27:41;12.10;;;8.45;;
20531;SDS011;10424;52.102;8.084;2023-05-07T10:30:12;10.85;;;8.55;;
20531;SDS011;10424;52.102;8.084;2023-05-07T10:32:45;10.98;;;9.15;;
20531;SDS011;10424;52.102;8.084;2023-05-07T10:35:15;9.68;;;7.95;;
20531;SDS011;10424;52.102;8.084;2023-05-07T10:37:43;10.10;;;8.00;;
20531;SDS011;10424;52.102;8.084;2023-05-07T10:40:12;10.27;;;8.18;;
20531;SDS011;10424;52.102;8.084;2023-05-07T10:42:49;11.23;;;8.25;;
20531;SDS011;10424;52.102;8.084;2023-05-07T10:45:20;10.43;;;8.40;;
20531;SDS011;10424;52.102;8.084;2023-05-07T10:50:35;10.52;;;8.10;;
20531;SDS011;10424;52.102;8.084;2023-05-07T10:55:51;11.50;;;8.93;;
20531;SDS011;10424;52.102;8.084;2023-05-07T10:58:22;11.25;;;8.50;;
20531;SDS011;10424;52.102;8.084;2023-05-07T11:00:50;11.50;;;8.52;;
20531;SDS011;10424;52.102;8.084;2023-05-07T11:03:18;12.13;;;8.23;;
20531;SDS011;10424;52.102;8.084;2023-05-07T11:05:48;10.38;;;8.20;;
20531;SDS011;10424;52.102;8.084;2023-05-07T11:08:53;10.15;;;8.20;;
20531;SDS011;10424;52.102;8.084;2023-05-07T11:11:36;10.10;;;7.93;;
20531;SDS011;10424;52.102;8.084;2023-05-07T11:14:10;9.52;;;7.97;;
20531;SDS011;10424;52.102;8.084;2023-05-07T11:16:38;9.25;;;7.72;;
20531;SDS011;10424;52.102;8.084;2023-05-07T11:19:07;9.65;;;8.23;;
20531;SDS011;10424;52.102;8.084;2023-05-07T11:21:36;9.85;;;7.93;;
20531;SDS011;10424;52.102;8.084;2023-05-07T11:24:04;9.77;;;7.53;;
20531;SDS011;10424;52.102;8.084;2023-05-07T11:26:41;9.63;;;7.95;;
20531;SDS011;10424;52.102;8.084;2023-05-07T11:29:13;10.13;;;8.20;;
20531;SDS011;10424;52.102;8.084;2023-05-07T11:31:40;9.60;;;8.60;;
20531;SDS011;10424;52.102;8.084;2023-05-07T11:34:08;9.90;;;8.20;;
20531;SDS011;10424;52.102;8.084;2023-05-07T11:36:41;9.77;;;8.00;;
20531;SDS011;10424;52.102;8.084;2023-05-07T11:39:25;10.07;;;7.95;;
20531;SDS011;10424;52.102;8.084;2023-05-07T11:41:53;9.38;;;7.55;;
20531;SDS011;10424;52.102;8.084;2023-05-07T11:44:20;8.40;;;7.15;;
20531;SDS011;10424;52.102;8.084;2023-05-07T11:46:48;10.48;;;7.80;;
20531;SDS011;10424;52.102;8.084;2023-05-07T11:49:16;7.82;;;6.72;;
20531;SDS011;10424;52.102;8.084;2023-05-07T11:51:45;11.55;;;7.65;;
20531;SDS011;10424;52.102;8.084;2023-05-07T11:54:15;9.98;;;8.20;;
20531;SDS011;10424;52.102;8.084;2023-05-07T11:56:42;9.38;;;6.80;;
20531;SDS011;10424;52.102;8.084;2023-05-07T11:59:12;10.25;;;7.22;;
20531;SDS011;10424;52.102;8.084;2023-05-07T12:01:45;9.05;;;7.50;;
20531;SDS011;10424;52.102;8.084;2023-05-07T12:04:12;8.23;;;7.05;;
20531;SDS011;10424;52.102;8.084;2023-05-07T12:06:40;9.25;;;7.18;;
20531;SDS011;10424;52.102;8.084;2023-05-07T12:09:08;9.55;;;7.57;;
20531;SDS011;10424;52.102;8.084;2023-05-07T12:11:36;9.32;;;7.60;;
20531;SDS011;10424;52.102;8.084;2023-05-07T12:14:05;9.80;;;7.35;;
20531;SDS011;10424;52.102;8.084;2023-05-07T12:16:33;8.15;;;7.25;;
20531;SDS011;10424;52.102;8.084;2023-05-07T12:19:00;13.45;;;6.68;;
20531;SDS011;10424;52.102;8.084;2023-05-07T12:21:28;7.72;;;6.47;;
20531;SDS011;10424;52.102;8.084;2023-05-07T12:23:56;7.88;;;6.68;;
20531;SDS011;10424;52.102;8.084;2023-05-07T12:26:25;7.43;;;6.55;;
20531;SDS011;10424;52.102;8.084;2023-05-07T12:28:52;8.13;;;6.95;;
20531;SDS011;10424;52.102;8.084;2023-05-07T12:31:20;7.63;;;6.43;;
20531;SDS011;10424;52.102;8.084;2023-05-07T12:33:47;8.52;;;6.05;;
20531;SDS011;10424;52.102;8.084;2023-05-07T12:36:15;8.77;;;6.55;;
20531;SDS011;10424;52.102;8.084;2023-05-07T12:38:42;8.27;;;6.18;;
20531;SDS011;10424;52.102;8.084;2023-05-07T12:41:10;8.88;;;6.05;;
20531;SDS011;10424;52.102;8.084;2023-05-07T12:43:38;8.38;;;5.70;;
20531;SDS011;10424;52.102;8.084;2023-05-07T12:46:07;6.95;;;5.80;;
20531;SDS011;10424;52.102;8.084;2023-05-07T12:48:35;6.20;;;5.00;;
20531;SDS011;10424;52.102;8.084;2023-05-07T12:51:03;5.97;;;5.38;;
20531;SDS011;10424;52.102;8.084;2023-05-07T12:53:32;7.95;;;5.90;;
20531;SDS011;10424;52.102;8.084;2023-05-07T12:56:01;7.03;;;5.63;;
20531;SDS011;10424;52.102;8.084;2023-05-07T12:58:29;6.60;;;5.70;;
20531;SDS011;10424;52.102;8.084;2023-05-07T13:01:04;6.57;;;5.70;;
20531;SDS011;10424;52.102;8.084;2023-05-07T13:03:32;7.00;;;6.10;;
20531;SDS011;10424;52.102;8.084;2023-05-07T13:06:00;6.68;;;5.88;;
20531;SDS011;10424;52.102;8.084;2023-05-07T13:08:29;7.63;;;6.10;;
20531;SDS011;10424;52.102;8.084;2023-05-07T13:10:57;7.72;;;5.63;;
20531;SDS011;10424;52.102;8.084;2023-05-07T13:13:28;7.05;;;5.55;;
20531;SDS011;10424;52.102;8.084;2023-05-07T13:15:55;7.68;;;5.60;;
20531;SDS011;10424;52.102;8.084;2023-05-07T13:18:25;7.15;;;5.90;;
20531;SDS011;10424;52.102;8.084;2023-05-07T13:20:52;5.45;;;4.95;;
20531;SDS011;10424;52.102;8.084;2023-05-07T13:23:20;6.35;;;4.97;;
20531;SDS011;10424;52.102;8.084;2023-05-07T13:25:48;6.00;;;5.00;;
20531;SDS011;10424;52.102;8.084;2023-05-07T13:28:15;6.65;;;5.60;;
20531;SDS011;10424;52.102;8.084;2023-05-07T13:30:43;6.95;;;5.82;;
20531;SDS011;10424;52.102;8.084;2023-05-07T13:33:10;6.13;;;5.30;;
20531;SDS011;10424;52.102;8.084;2023-05-07T13:35:39;6.82;;;5.43;;
20531;SDS011;10424;52.102;8.084;2023-05-07T13:38:06;6.80;;;5.32;;
20531;SDS011;10424;52.102;8.084;2023-05-07T13:40:33;8.32;;;5.20;;
20531;SDS011;10424;52.102;8.084;2023-05-07T13:43:01;6.05;;;4.50;;
20531;SDS011;10424;52.102;8.084;2023-05-07T13:45:28;7.00;;;5.00;;
20531;SDS011;10424;52.102;8.084;2023-05-07T13:47:56;7.78;;;4.65;;
20531;SDS011;10424;52.102;8.084;2023-05-07T13:50:23;4.85;;;4.28;;
20531;SDS011;10424;52.102;8.084;2023-05-07T13:52:53;6.35;;;4.80;;
20531;SDS011;10424;52.102;8.084;2023-05-07T13:55:21;5.13;;;4.63;;
20531;SDS011;10424;52.102;8.084;2023-05-07T13:57:53;5.55;;;4.60;;
20531;SDS011;10424;52.102;8.084;2023-05-07T14:00:21;6.13;;;4.70;;
20531;SDS011;10424;52.102;8.084;2023-05-07T14:02:48;6.03;;;4.63;;
20531;SDS011;10424;52.102;8.084;2023-05-07T14:05:15;7.68;;;4.40;;
20531;SDS011;10424;52.102;8.084;2023-05-07T14:07:43;6.95;;;4.60;;
20531;SDS011;10424;52.102;8.084;2023-05-07T14:10:12;8.02;;;4.78;;
20531;SDS011;10424;52.102;8.084;2023-05-07T14:12:39;5.28;;;4.40;;
20531;SDS011;10424;52.102;8.084;2023-05-07T14:15:07;6.22;;;4.30;;
20531;SDS011;10424;52.102;8.084;2023-05-07T14:17:34;6.82;;;4.63;;
20531;SDS011;10424;52.102;8.084;2023-05-07T14:20:02;5.60;;;4.43;;
20531;SDS011;10424;52.102;8.084;2023-05-07T14:22:29;6.18;;;4.55;;
20531;SDS011;10424;52.102;8.084;2023-05-07T14:24:57;6.18;;;4.20;;
20531;SDS011;10424;52.102;8.084;2023-05-07T14:27:26;5.63;;;4.20;;
20531;SDS011;10424;52.102;8.084;2023-05-07T14:29:55;5.75;;;4.63;;
20531;SDS011;10424;52.102;8.084;2023-05-07T14:32:23;4.85;;;4.10;;
20531;SDS011;10424;52.102;8.084;2023-05-07T14:34:51;5.30;;;4.05;;
20531;SDS011;10424;52.102;8.084;2023-05-07T14:37:18;4.55;;;4.05;;
20531;SDS011;10424;52.102;8.084;2023-05-07T14:39:46;5.65;;;4.28;;